createdAt,value
2019-04-23T00:05:00.309Z,11.04
2019-04-23T00:07:43.132Z,11.02
2019-04-23T00:10:12.715Z,11.00
2019-04-23T00:12:44.178Z,11.03
2019-04-23T00:15:09.188Z,11.01
2019-04-23T00:17:42.518Z,10.98
2019-04-23T00:23:16.512Z,10.93
2019-04-23T00:26:10.605Z,10.51
2019-04-23T00:28:26.719Z,11.10
2019-04-23T00:33:29.661Z,11.05
2019-04-23T00:35:56.542Z,10.90
2019-04-23T00:38:33.664Z,10.77
2019-04-23T00:41:02.995Z,10.68
2019-04-23T00:43:37.794Z,10.75
2019-04-23T00:46:06.267Z,10.66
2019-04-23T00:48:45.393Z,10.72
2019-04-23T00:51:02.256Z,10.62
2019-04-23T00:53:38.625Z,10.62
2019-04-23T00:56:26.409Z,10.59
2019-04-23T00:58:52.860Z,10.76
2019-04-23T01:01:11.299Z,10.78
2019-04-23T01:03:48.284Z,10.69
2019-04-23T01:06:21.130Z,10.69
2019-04-23T01:08:44.159Z,10.65
2019-04-23T01:13:49.487Z,10.47
2019-04-23T01:18:58.176Z,10.69
2019-04-23T01:21:15.835Z,10.67
2019-04-23T01:24:15.988Z,10.57
2019-04-23T01:27:39.758Z,10.47
2019-04-23T01:29:57.897Z,10.43
2019-04-23T01:32:28.947Z,10.40
2019-04-23T01:35:06.575Z,10.38
2019-04-23T01:37:30.457Z,10.38
2019-04-23T01:40:09.720Z,10.40
2019-04-23T01:42:44.051Z,10.30
2019-04-23T01:45:11.743Z,10.43
2019-04-23T01:47:38.851Z,10.37
2019-04-23T01:52:48.235Z,9.29
2019-04-23T01:55:15.486Z,10.45
2019-04-23T01:57:47.218Z,10.41
2019-04-23T02:00:16.156Z,10.41
2019-04-23T02:02:49.827Z,10.55
2019-04-23T02:05:22.914Z,10.48
2019-04-23T02:08:04.728Z,10.56
2019-04-23T02:10:42.627Z,10.46
2019-04-23T02:12:57.037Z,10.58
2019-04-23T02:15:25.884Z,10.58
2019-04-23T02:17:58.573Z,10.73
2019-04-23T02:25:50.527Z,10.63
2019-04-23T02:28:31.174Z,10.64
2019-04-23T02:33:34.550Z,10.52
2019-04-23T02:43:59.599Z,10.51
2019-04-23T02:46:05.720Z,10.51
2019-04-23T02:48:43.899Z,10.55
2019-04-23T02:51:13.238Z,10.48
2019-04-23T03:03:54.387Z,10.58
2019-04-23T03:06:24.262Z,10.64
2019-04-23T03:08:53.024Z,10.65
2019-04-23T03:11:28.170Z,10.77
2019-04-23T03:14:00.370Z,10.73
2019-04-23T03:16:54.762Z,10.72
2019-04-23T03:20:06.028Z,10.66
2019-04-23T03:22:14.600Z,10.81
2019-04-23T03:40:13.759Z,10.33
2019-04-23T03:42:42.464Z,10.10
2019-04-23T03:45:16.995Z,8.78
2019-04-23T03:48:03.093Z,10.01
2019-04-23T03:50:14.940Z,9.58
2019-04-23T03:52:39.156Z,9.41
2019-04-23T03:55:19.079Z,9.31
2019-04-23T04:03:02.153Z,9.12
2019-04-23T04:05:33.718Z,9.63
2019-04-23T04:10:25.615Z,9.48
2019-04-23T04:15:41.647Z,9.67
2019-04-23T04:18:13.912Z,9.74
2019-04-23T04:25:44.856Z,9.61
2019-04-23T04:30:43.165Z,9.75
2019-04-23T04:33:47.226Z,9.77
2019-04-23T04:36:10.691Z,9.82
2019-04-23T04:41:01.310Z,9.72
2019-04-23T04:46:12.353Z,9.83
2019-04-23T04:56:16.600Z,10.20
2019-04-23T05:01:23.296Z,10.04
2019-04-23T05:03:29.788Z,10.26
2019-04-23T05:08:49.235Z,10.80
2019-04-23T05:11:28.175Z,11.05
2019-04-23T05:14:00.062Z,10.98
2019-04-23T05:16:24.271Z,11.18
2019-04-23T05:21:46.595Z,11.12
2019-04-23T05:24:08.586Z,11.17
2019-04-23T05:26:29.970Z,11.22
2019-04-23T05:29:11.172Z,11.55
2019-04-23T05:31:44.468Z,11.58
2019-04-23T05:34:19.609Z,11.28
2019-04-23T05:36:51.121Z,11.30
2019-04-23T05:39:26.890Z,11.40
2019-04-23T05:41:49.390Z,11.35
2019-04-23T05:46:56.375Z,11.10
2019-04-23T05:49:24.806Z,11.26
2019-04-23T05:51:57.418Z,11.36
2019-04-23T05:54:37.521Z,11.53
2019-04-23T05:56:58.389Z,11.40
2019-04-23T05:59:33.024Z,11.22
2019-04-23T06:02:07.552Z,11.50
2019-04-23T06:07:15.111Z,11.76
2019-04-23T06:09:31.187Z,11.78
2019-04-23T06:14:39.102Z,11.66
2019-04-23T06:17:15.219Z,11.41
2019-04-23T06:19:32.727Z,11.47
2019-04-23T06:24:44.326Z,11.54
2019-04-23T13:23:49.195Z,16.37
2019-04-23T13:26:26.294Z,16.37
2019-04-23T13:29:07.804Z,16.55
2019-04-23T13:31:32.733Z,17.64
2019-04-23T13:34:04.975Z,16.82
2019-04-23T13:36:36.226Z,17.02
2019-04-23T13:39:14.728Z,16.71
2019-04-23T13:41:53.971Z,16.75
2019-04-23T13:44:13.377Z,16.77
2019-04-23T13:46:39.890Z,17.16
2019-04-23T13:49:23.564Z,17.03
2019-04-23T13:52:06.080Z,16.75
2019-04-23T13:54:39.453Z,16.70
2019-04-23T13:59:29.038Z,16.70
2019-04-23T14:01:46.802Z,17.06
2019-04-23T14:04:45.068Z,17.03
2019-04-23T14:07:10.260Z,17.15
2019-04-23T14:09:47.192Z,17.19
2019-04-23T14:12:08.347Z,17.24
2019-04-23T14:17:26.844Z,17.84
2019-04-23T14:19:47.221Z,17.70
2019-04-23T14:22:45.042Z,18.10
2019-04-23T14:25:07.929Z,17.44
2019-04-23T14:30:07.177Z,17.21
2019-04-23T14:32:28.687Z,17.21
2019-04-23T14:35:11.486Z,16.82
2019-04-23T14:37:22.160Z,16.85
2019-04-23T14:40:22.228Z,17.01
2019-04-23T14:43:03.985Z,16.84
2019-04-23T14:48:00.934Z,16.99
2019-04-23T14:58:18.150Z,15.66
2019-04-23T15:00:43.402Z,15.57
2019-04-23T15:05:45.083Z,16.20
2019-04-23T15:08:15.275Z,16.15
2019-04-23T15:10:57.417Z,16.20
2019-04-23T15:13:22.716Z,16.23
2019-04-23T15:15:53.951Z,16.24
2019-04-23T15:23:51.523Z,16.02
2019-04-23T15:27:10.368Z,16.06
2019-04-23T15:28:20.185Z,16.02
2019-04-23T15:31:18.934Z,15.82
2019-04-23T15:33:56.565Z,15.67
2019-04-23T15:36:32.686Z,15.92
2019-04-23T15:41:29.450Z,15.65
2019-04-23T15:43:57.524Z,16.32
2019-04-23T15:46:37.066Z,16.12
2019-04-23T15:49:17.824Z,15.97
2019-04-23T15:54:04.110Z,16.08
2019-04-23T15:59:13.065Z,16.08
2019-04-23T16:01:35.082Z,16.44
2019-04-23T16:03:41.887Z,16.31
2019-04-23T16:06:12.739Z,16.48
2019-04-23T16:11:44.190Z,16.31
2019-04-23T16:14:25.388Z,16.17
2019-04-23T16:17:06.681Z,15.96
2019-04-23T16:19:42.903Z,16.16
2019-04-23T16:22:10.765Z,16.13
2019-04-23T16:24:52.972Z,16.15
2019-04-23T16:27:41.630Z,15.91
2019-04-23T16:32:33.060Z,15.58
2019-04-23T16:35:10.942Z,15.64
2019-04-23T16:37:28.870Z,15.79
2019-04-23T16:40:16.425Z,15.89
2019-04-23T16:42:30.927Z,15.27
2019-04-23T16:52:34.872Z,15.30
2019-04-23T16:55:23.994Z,14.61
2019-04-23T16:58:01.485Z,15.52
2019-04-23T17:00:25.989Z,15.68
2019-04-23T17:02:45.879Z,15.69
2019-04-23T17:05:21.655Z,15.55
2019-04-23T17:07:54.066Z,15.02
2019-04-23T17:10:19.212Z,15.49
2019-04-23T17:12:54.727Z,15.53
2019-04-23T17:15:29.685Z,15.50
2019-04-23T17:17:58.365Z,15.29
2019-04-23T17:20:30.934Z,15.36
2019-04-23T17:23:07.425Z,15.41
2019-04-23T17:25:28.370Z,15.35
2019-04-23T17:28:17.058Z,15.22
2019-04-23T17:30:37.701Z,14.91
2019-04-23T17:33:21.270Z,14.92
2019-04-23T17:36:18.505Z,14.99
2019-04-23T17:38:51.054Z,15.18
2019-04-23T17:41:32.811Z,15.37
2019-04-23T17:44:09.538Z,15.22
2019-04-23T17:46:27.071Z,15.36
2019-04-23T17:49:04.680Z,15.14
2019-04-23T17:51:37.766Z,15.26
2019-04-23T17:54:10.965Z,15.36
2019-04-23T17:57:05.312Z,15.38
2019-04-23T17:59:14.070Z,15.33
2019-04-23T18:01:54.238Z,15.48
2019-04-23T18:04:27.521Z,15.50
2019-04-23T18:06:54.062Z,15.40
2019-04-23T18:09:34.397Z,15.45
2019-04-23T18:12:09.188Z,15.29
2019-04-23T18:14:18.289Z,15.17
2019-04-23T18:16:55.516Z,15.05
2019-04-23T18:19:23.086Z,14.68
2019-04-23T18:27:31.375Z,14.92
2019-04-23T18:35:29.681Z,14.85
2019-04-23T18:38:05.226Z,14.65
2019-04-23T18:40:38.908Z,14.72
2019-04-23T18:51:21.427Z,14.59
2019-04-23T18:57:25.213Z,14.66
2019-04-23T18:59:52.007Z,15.27
2019-04-23T19:08:00.989Z,14.21
2019-04-23T19:10:36.074Z,14.39
2019-04-23T19:13:18.678Z,14.41
2019-04-23T19:18:24.068Z,14.58
2019-04-23T19:23:25.750Z,14.54
2019-04-23T19:25:50.224Z,14.35
2019-04-23T19:31:05.609Z,14.48
2019-04-23T19:34:11.758Z,14.28
2019-04-23T19:36:13.768Z,14.37
2019-04-23T19:38:36.343Z,14.19
2019-04-23T19:41:10.778Z,14.02
2019-04-23T19:43:49.127Z,14.30
2019-04-23T19:46:22.021Z,14.41
2019-04-23T19:48:57.974Z,14.50
2019-04-23T19:51:17.124Z,14.45
2019-04-23T19:58:54.443Z,14.59
2019-04-23T20:01:23.938Z,14.45
2019-04-23T20:03:53.651Z,14.15
2019-04-23T20:06:52.185Z,14.13
2019-04-23T20:11:38.088Z,14.00
2019-04-23T20:14:02.321Z,13.92
2019-04-23T20:16:40.140Z,13.79
2019-04-23T20:21:44.406Z,13.72
2019-04-23T20:24:21.547Z,13.89
2019-04-23T20:26:45.827Z,13.91
2019-04-23T20:29:45.125Z,14.24
2019-04-23T20:35:06.579Z,13.76
2019-04-23T20:40:04.215Z,13.94
2019-04-23T20:42:48.188Z,13.66
2019-04-23T20:47:45.904Z,12.61
2019-04-23T20:50:04.163Z,13.43
2019-04-23T20:52:41.147Z,12.66
2019-04-23T20:55:50.640Z,12.40
2019-04-23T20:57:55.309Z,12.89
2019-04-23T21:05:50.397Z,12.93
2019-04-23T21:08:22.405Z,13.32
2019-04-23T21:10:58.313Z,13.22
2019-04-23T21:16:04.952Z,12.83
2019-04-23T21:18:31.575Z,13.50
2019-04-23T21:25:52.498Z,13.11
2019-04-23T21:28:43.009Z,13.03
2019-04-23T21:31:06.079Z,12.92
2019-04-23T21:33:48.148Z,12.81
2019-04-23T21:36:40.217Z,13.04
2019-04-23T21:39:40.685Z,13.17
2019-04-23T21:42:24.211Z,13.00
2019-04-23T21:44:57.956Z,12.94
2019-04-23T21:47:25.760Z,12.86
2019-04-23T21:50:10.700Z,12.87
2019-04-23T21:52:30.352Z,13.11
2019-04-23T21:55:00.515Z,13.14
2019-04-23T21:57:41.970Z,13.37
2019-04-23T21:59:59.340Z,13.26
2019-04-23T22:02:36.157Z,13.19
2019-04-23T22:07:49.445Z,13.15
2019-04-23T22:12:46.764Z,12.83
2019-04-23T22:15:07.208Z,12.89
2019-04-23T22:17:46.237Z,13.24
2019-04-23T22:20:22.465Z,13.08
2019-04-23T22:22:56.894Z,13.13
2019-04-23T22:25:17.920Z,13.07
2019-04-23T22:27:48.410Z,13.30
2019-04-23T22:30:22.371Z,13.28
2019-04-23T22:32:59.374Z,13.34
2019-04-23T22:35:43.228Z,13.44
2019-04-23T22:38:09.204Z,13.18
2019-04-23T22:40:25.104Z,13.11
2019-04-23T22:45:40.260Z,12.78
2019-04-23T22:48:04.723Z,12.80
2019-04-23T22:50:38.652Z,12.78
2019-04-23T22:53:08.019Z,12.74
2019-04-23T22:55:41.078Z,12.52
2019-04-23T23:00:46.965Z,12.14
2019-04-23T23:03:24.359Z,12.42
2019-04-23T23:08:20.840Z,12.43
2019-04-23T23:10:56.981Z,12.53
2019-04-23T23:13:35.107Z,12.46
2019-04-23T23:16:05.477Z,12.27
2019-04-23T23:23:39.432Z,12.22
2019-04-23T23:28:35.253Z,12.21
2019-04-23T23:31:06.843Z,12.32
2019-04-23T23:33:42.976Z,12.35
2019-04-23T23:38:57.416Z,12.17
2019-04-23T23:41:20.377Z,12.28
2019-04-23T23:48:54.872Z,12.18
2019-04-23T23:54:00.301Z,11.93
2019-04-23T23:59:04.280Z,11.94
